sensor_id;sensor_type;location;lat;lon;timestamp;P1;durP1;ratioP1;P2;durP2;ratioP2
52434;SDS011;38354;52.892;6.148;2022-07-06T03:02:22;4.15;;;1.65;;
52434;SDS011;38354;52.892;6.148;2022-07-06T03:04:48;4.35;;;1.42;;
52434;SDS011;38354;52.892;6.148;2022-07-06T03:07:14;4.90;;;1.88;;
52434;SDS011;38354;52.892;6.148;2022-07-06T03:09:40;6.25;;;1.63;;
52434;SDS011;38354;52.892;6.148;2022-07-06T03:12:06;6.18;;;2.22;;
52434;SDS011;38354;52.892;6.148;2022-07-06T03:14:32;6.38;;;2.38;;
52434;SDS011;38354;52.892;6.148;2022-07-06T03:16:58;6.75;;;1.90;;
52434;SDS011;38354;52.892;6.148;2022-07-06T03:19:26;5.97;;;1.90;;
52434;SDS011;38354;52.892;6.148;2022-07-06T03:21:52;6.28;;;1.40;;
52434;SDS011;38354;52.892;6.148;2022-07-06T03:24:18;8.38;;;2.00;;
52434;SDS011;38354;52.892;6.148;2022-07-06T03:26:43;4.53;;;1.63;;
52434;SDS011;38354;52.892;6.148;2022-07-06T03:29:09;5.38;;;1.58;;
52434;SDS011;38354;52.892;6.148;2022-07-06T03:31:35;5.47;;;1.65;;
52434;SDS011;38354;52.892;6.148;2022-07-06T03:34:00;4.47;;;1.55;;
52434;SDS011;38354;52.892;6.148;2022-07-06T03:36:26;4.85;;;1.38;;
52434;SDS011;38354;52.892;6.148;2022-07-06T03:38:51;4.97;;;1.33;;
52434;SDS011;38354;52.892;6.148;2022-07-06T03:41:17;6.68;;;1.40;;
52434;SDS011;38354;52.892;6.148;2022-07-06T03:43:43;7.50;;;1.40;;
52434;SDS011;38354;52.892;6.148;2022-07-06T03:46:08;5.30;;;1.15;;
52434;SDS011;38354;52.892;6.148;2022-07-06T03:48:34;7.93;;;1.30;;
52434;SDS011;38354;52.892;6.148;2022-07-06T03:51:00;6.22;;;1.10;;
52434;SDS011;38354;52.892;6.148;2022-07-06T03:53:25;5.72;;;1.30;;
52434;SDS011;38354;52.892;6.148;2022-07-06T03:55:51;6.10;;;1.13;;
52434;SDS011;38354;52.892;6.148;2022-07-06T03:58:36;4.57;;;1.92;;
52434;SDS011;38354;52.892;6.148;2022-07-06T04:01:01;5.43;;;1.38;;
52434;SDS011;38354;52.892;6.148;2022-07-06T04:03:27;7.47;;;1.30;;
52434;SDS011;38354;52.892;6.148;2022-07-06T04:05:53;9.90;;;2.10;;
52434;SDS011;38354;52.892;6.148;2022-07-06T04:08:18;6.30;;;1.10;;
52434;SDS011;38354;52.892;6.148;2022-07-06T04:10:44;7.60;;;2.20;;
52434;SDS011;38354;52.892;6.148;2022-07-06T04:13:11;7.50;;;1.30;;
52434;SDS011;38354;52.892;6.148;2022-07-06T04:15:36;6.07;;;1.27;;
52434;SDS011;38354;52.892;6.148;2022-07-06T04:18:02;4.55;;;1.13;;
52434;SDS011;38354;52.892;6.148;2022-07-06T04:20:28;4.97;;;1.30;;
52434;SDS011;38354;52.892;6.148;2022-07-06T04:22:54;9.23;;;1.27;;
52434;SDS011;38354;52.892;6.148;2022-07-06T04:25:20;5.43;;;1.23;;
52434;SDS011;38354;52.892;6.148;2022-07-06T04:27:45;5.47;;;1.00;;
52434;SDS011;38354;52.892;6.148;2022-07-06T04:30:11;4.97;;;1.10;;
52434;SDS011;38354;52.892;6.148;2022-07-06T04:32:37;8.45;;;1.20;;
52434;SDS011;38354;52.892;6.148;2022-07-06T04:35:04;6.75;;;1.27;;
52434;SDS011;38354;52.892;6.148;2022-07-06T04:37:30;4.22;;;0.90;;
52434;SDS011;38354;52.892;6.148;2022-07-06T04:39:56;8.50;;;1.40;;
52434;SDS011;38354;52.892;6.148;2022-07-06T04:42:22;6.60;;;1.25;;
52434;SDS011;38354;52.892;6.148;2022-07-06T04:44:47;8.75;;;1.25;;
52434;SDS011;38354;52.892;6.148;2022-07-06T04:47:14;9.82;;;1.20;;
52434;SDS011;38354;52.892;6.148;2022-07-06T04:49:40;6.00;;;1.15;;
52434;SDS011;38354;52.892;6.148;2022-07-06T04:52:06;8.75;;;1.20;;
52434;SDS011;38354;52.892;6.148;2022-07-06T04:54:33;9.40;;;1.13;;
52434;SDS011;38354;52.892;6.148;2022-07-06T04:56:58;5.10;;;0.80;;
52434;SDS011;38354;52.892;6.148;2022-07-06T04:59:24;5.63;;;0.98;;
52434;SDS011;38354;52.892;6.148;2022-07-06T05:01:50;5.05;;;0.73;;
52434;SDS011;38354;52.892;6.148;2022-07-06T05:04:15;5.85;;;0.82;;
52434;SDS011;38354;52.892;6.148;2022-07-06T05:06:43;4.03;;;0.90;;
52434;SDS011;38354;52.892;6.148;2022-07-06T05:09:09;2.55;;;0.77;;
52434;SDS011;38354;52.892;6.148;2022-07-06T05:11:35;8.80;;;1.13;;
52434;SDS011;38354;52.892;6.148;2022-07-06T05:14:02;5.72;;;0.70;;
52434;SDS011;38354;52.892;6.148;2022-07-06T05:16:28;2.28;;;0.80;;
52434;SDS011;38354;52.892;6.148;2022-07-06T05:18:53;5.25;;;0.80;;
52434;SDS011;38354;52.892;6.148;2022-07-06T05:21:19;4.40;;;1.05;;
52434;SDS011;38354;52.892;6.148;2022-07-06T05:23:45;6.05;;;1.10;;
52434;SDS011;38354;52.892;6.148;2022-07-06T05:26:10;6.35;;;1.13;;
52434;SDS011;38354;52.892;6.148;2022-07-06T05:28:36;4.32;;;1.17;;
52434;SDS011;38354;52.892;6.148;2022-07-06T05:31:02;6.55;;;1.65;;
52434;SDS011;38354;52.892;6.148;2022-07-06T05:33:27;7.60;;;1.60;;
52434;SDS011;38354;52.892;6.148;2022-07-06T05:35:53;6.22;;;1.45;;
52434;SDS011;38354;52.892;6.148;2022-07-06T05:38:19;4.07;;;1.67;;
52434;SDS011;38354;52.892;6.148;2022-07-06T05:40:46;6.60;;;1.70;;
52434;SDS011;38354;52.892;6.148;2022-07-06T05:43:12;4.88;;;1.27;;
52434;SDS011;38354;52.892;6.148;2022-07-06T05:45:37;6.43;;;1.17;;
52434;SDS011;38354;52.892;6.148;2022-07-06T05:48:03;4.68;;;1.02;;
52434;SDS011;38354;52.892;6.148;2022-07-06T05:50:47;6.22;;;1.02;;
52434;SDS011;38354;52.892;6.148;2022-07-06T05:53:13;3.70;;;0.80;;
52434;SDS011;38354;52.892;6.148;2022-07-06T05:55:39;7.20;;;1.02;;
52434;SDS011;38354;52.892;6.148;2022-07-06T05:58:04;3.15;;;0.85;;
52434;SDS011;38354;52.892;6.148;2022-07-06T06:00:30;5.22;;;0.88;;
52434;SDS011;38354;52.892;6.148;2022-07-06T06:02:57;4.63;;;0.90;;
52434;SDS011;38354;52.892;6.148;2022-07-06T06:05:23;6.53;;;1.00;;
52434;SDS011;38354;52.892;6.148;2022-07-06T06:07:49;3.03;;;0.80;;
52434;SDS011;38354;52.892;6.148;2022-07-06T06:10:16;2.10;;;0.82;;
52434;SDS011;38354;52.892;6.148;2022-07-06T06:12:43;4.75;;;0.88;;
52434;SDS011;38354;52.892;6.148;2022-07-06T06:15:10;6.30;;;0.77;;
52434;SDS011;38354;52.892;6.148;2022-07-06T06:17:36;5.68;;;0.88;;
52434;SDS011;38354;52.892;6.148;2022-07-06T06:20:07;4.25;;;0.90;;
52434;SDS011;38354;52.892;6.148;2022-07-06T06:22:48;2.83;;;0.70;;
52434;SDS011;38354;52.892;6.148;2022-07-06T06:25:26;6.32;;;0.85;;
52434;SDS011;38354;52.892;6.148;2022-07-06T06:27:54;3.08;;;0.80;;
52434;SDS011;38354;52.892;6.148;2022-07-06T06:30:20;7.05;;;0.88;;
52434;SDS011;38354;52.892;6.148;2022-07-06T06:32:47;2.63;;;0.80;;
52434;SDS011;38354;52.892;6.148;2022-07-06T06:35:13;3.15;;;0.90;;
52434;SDS011;38354;52.892;6.148;2022-07-06T06:37:38;3.72;;;0.60;;
52434;SDS011;38354;52.892;6.148;2022-07-06T06:40:05;5.30;;;0.80;;
52434;SDS011;38354;52.892;6.148;2022-07-06T06:42:31;3.13;;;0.75;;
52434;SDS011;38354;52.892;6.148;2022-07-06T06:44:57;5.78;;;1.05;;
52434;SDS011;38354;52.892;6.148;2022-07-06T06:47:24;4.80;;;0.88;;
52434;SDS011;38354;52.892;6.148;2022-07-06T06:49:49;5.35;;;0.85;;
52434;SDS011;38354;52.892;6.148;2022-07-06T06:52:15;4.50;;;1.10;;
52434;SDS011;38354;52.892;6.148;2022-07-06T06:54:40;4.88;;;0.80;;
52434;SDS011;38354;52.892;6.148;2022-07-06T06:57:06;2.65;;;0.80;;
52434;SDS011;38354;52.892;6.148;2022-07-06T06:59:32;4.97;;;1.00;;
52434;SDS011;38354;52.892;6.148;2022-07-06T07:01:57;4.18;;;0.90;;
52434;SDS011;38354;52.892;6.148;2022-07-06T07:04:23;3.80;;;0.80;;
52434;SDS011;38354;52.892;6.148;2022-07-06T07:06:49;3.20;;;0.68;;
52434;SDS011;38354;52.892;6.148;2022-07-06T07:09:15;5.57;;;0.90;;
52434;SDS011;38354;52.892;6.148;2022-07-06T07:11:40;3.15;;;0.60;;
52434;SDS011;38354;52.892;6.148;2022-07-06T07:14:06;3.03;;;0.50;;
52434;SDS011;38354;52.892;6.148;2022-07-06T07:16:32;3.72;;;0.40;;
52434;SDS011;38354;52.892;6.148;2022-07-06T07:18:58;3.80;;;0.57;;
52434;SDS011;38354;52.892;6.148;2022-07-06T07:21:23;2.65;;;0.47;;
52434;SDS011;38354;52.892;6.148;2022-07-06T07:23:49;4.30;;;0.70;;
52434;SDS011;38354;52.892;6.148;2022-07-06T07:26:15;2.88;;;0.47;;
52434;SDS011;38354;52.892;6.148;2022-07-06T07:28:41;3.67;;;0.40;;
52434;SDS011;38354;52.892;6.148;2022-07-06T07:31:07;4.63;;;0.70;;
52434;SDS011;38354;52.892;6.148;2022-07-06T07:33:33;2.70;;;0.50;;
52434;SDS011;38354;52.892;6.148;2022-07-06T07:35:59;4.53;;;0.60;;
52434;SDS011;38354;52.892;6.148;2022-07-06T07:38:25;7.10;;;1.40;;
52434;SDS011;38354;52.892;6.148;2022-07-06T07:40:50;3.58;;;0.85;;
52434;SDS011;38354;52.892;6.148;2022-07-06T07:43:19;3.78;;;0.63;;
52434;SDS011;38354;52.892;6.148;2022-07-06T07:45:45;6.68;;;1.10;;
52434;SDS011;38354;52.892;6.148;2022-07-06T07:48:11;2.95;;;0.50;;
52434;SDS011;38354;52.892;6.148;2022-07-06T07:50:37;6.88;;;0.50;;
52434;SDS011;38354;52.892;6.148;2022-07-06T07:53:02;5.13;;;0.65;;
52434;SDS011;38354;52.892;6.148;2022-07-06T07:55:28;1.65;;;0.30;;
52434;SDS011;38354;52.892;6.148;2022-07-06T07:57:54;3.35;;;0.50;;
52434;SDS011;38354;52.892;6.148;2022-07-06T08:00:19;4.82;;;0.68;;
52434;SDS011;38354;52.892;6.148;2022-07-06T08:02:46;3.65;;;0.40;;
52434;SDS011;38354;52.892;6.148;2022-07-06T08:05:12;5.50;;;0.60;;
52434;SDS011;38354;52.892;6.148;2022-07-06T08:07:40;3.78;;;0.40;;
52434;SDS011;38354;52.892;6.148;2022-07-06T08:10:07;4.00;;;0.80;;
52434;SDS011;38354;52.892;6.148;2022-07-06T08:12:33;3.90;;;0.75;;
52434;SDS011;38354;52.892;6.148;2022-07-06T08:14:58;5.88;;;0.68;;
52434;SDS011;38354;52.892;6.148;2022-07-06T08:17:24;5.70;;;0.50;;
52434;SDS011;38354;52.892;6.148;2022-07-06T08:19:50;9.05;;;0.60;;
52434;SDS011;38354;52.892;6.148;2022-07-06T08:22:15;1.92;;;0.52;;
52434;SDS011;38354;52.892;6.148;2022-07-06T08:24:41;4.35;;;0.50;;
52434;SDS011;38354;52.892;6.148;2022-07-06T08:27:07;1.80;;;0.40;;
52434;SDS011;38354;52.892;6.148;2022-07-06T08:29:33;3.60;;;0.50;;
52434;SDS011;38354;52.892;6.148;2022-07-06T08:31:59;0.73;;;0.32;;
52434;SDS011;38354;52.892;6.148;2022-07-06T08:34:25;2.80;;;0.50;;
52434;SDS011;38354;52.892;6.148;2022-07-06T08:36:50;2.45;;;0.40;;
52434;SDS011;38354;52.892;6.148;2022-07-06T08:39:16;2.00;;;0.43;;
52434;SDS011;38354;52.892;6.148;2022-07-06T08:41:42;2.38;;;0.70;;
52434;SDS011;38354;52.892;6.148;2022-07-06T08:44:12;2.95;;;0.40;;
52434;SDS011;38354;52.892;6.148;2022-07-06T08:46:41;1.73;;;0.20;;
52434;SDS011;38354;52.892;6.148;2022-07-06T08:49:08;4.78;;;0.70;;
52434;SDS011;38354;52.892;6.148;2022-07-06T08:51:38;3.20;;;0.40;;
52434;SDS011;38354;52.892;6.148;2022-07-06T08:54:05;3.08;;;0.50;;
52434;SDS011;38354;52.892;6.148;2022-07-06T08:56:32;3.13;;;0.60;;
52434;SDS011;38354;52.892;6.148;2022-07-06T08:58:58;2.08;;;0.50;;
52434;SDS011;38354;52.892;6.148;2022-07-06T09:01:24;1.95;;;0.30;;
52434;SDS011;38354;52.892;6.148;2022-07-06T09:03:50;3.65;;;0.90;;
52434;SDS011;38354;52.892;6.148;2022-07-06T09:06:16;4.63;;;0.50;;
52434;SDS011;38354;52.892;6.148;2022-07-06T09:08:47;1.20;;;0.30;;
52434;SDS011;38354;52.892;6.148;2022-07-06T09:11:14;1.83;;;0.40;;
52434;SDS011;38354;52.892;6.148;2022-07-06T09:13:40;2.53;;;0.40;;
52434;SDS011;38354;52.892;6.148;2022-07-06T09:16:13;4.65;;;0.60;;
52434;SDS011;38354;52.892;6.148;2022-07-06T09:18:43;5.60;;;0.60;;
52434;SDS011;38354;52.892;6.148;2022-07-06T09:21:10;3.47;;;0.65;;
52434;SDS011;38354;52.892;6.148;2022-07-06T09:23:36;2.83;;;0.60;;
52434;SDS011;38354;52.892;6.148;2022-07-06T09:26:03;4.55;;;0.90;;
52434;SDS011;38354;52.892;6.148;2022-07-06T09:28:40;4.38;;;0.73;;
52434;SDS011;38354;52.892;6.148;2022-07-06T09:31:10;3.33;;;0.80;;
52434;SDS011;38354;52.892;6.148;2022-07-06T09:33:36;5.03;;;0.70;;
52434;SDS011;38354;52.892;6.148;2022-07-06T09:36:02;6.32;;;0.85;;
52434;SDS011;38354;52.892;6.148;2022-07-06T09:38:28;1.58;;;0.60;;
52434;SDS011;38354;52.892;6.148;2022-07-06T09:40:54;3.10;;;0.70;;
52434;SDS011;38354;52.892;6.148;2022-07-06T09:43:21;1.67;;;0.60;;
52434;SDS011;38354;52.892;6.148;2022-07-06T09:45:51;5.70;;;0.90;;
52434;SDS011;38354;52.892;6.148;2022-07-06T09:48:18;2.75;;;0.52;;
52434;SDS011;38354;52.892;6.148;2022-07-06T09:51:00;5.57;;;1.00;;
52434;SDS011;38354;52.892;6.148;2022-07-06T09:53:34;4.18;;;0.60;;
52434;SDS011;38354;52.892;6.148;2022-07-06T09:56:00;2.05;;;0.60;;
52434;SDS011;38354;52.892;6.148;2022-07-06T09:58:27;3.42;;;0.60;;
52434;SDS011;38354;52.892;6.148;2022-07-06T10:00:53;3.75;;;0.60;;
52434;SDS011;38354;52.892;6.148;2022-07-06T10:03:19;2.72;;;0.98;;
52434;SDS011;38354;52.892;6.148;2022-07-06T10:05:45;5.72;;;0.68;;
52434;SDS011;38354;52.892;6.148;2022-07-06T10:08:12;4.78;;;0.73;;
52434;SDS011;38354;52.892;6.148;2022-07-06T10:10:39;10.57;;;1.38;;
52434;SDS011;38354;52.892;6.148;2022-07-06T10:13:06;5.28;;;0.50;;
52434;SDS011;38354;52.892;6.148;2022-07-06T10:15:33;2.97;;;0.65;;
52434;SDS011;38354;52.892;6.148;2022-07-06T10:18:00;2.28;;;0.52;;
52434;SDS011;38354;52.892;6.148;2022-07-06T10:20:28;4.10;;;0.75;;
52434;SDS011;38354;52.892;6.148;2022-07-06T10:22:59;2.70;;;0.52;;
52434;SDS011;38354;52.892;6.148;2022-07-06T10:25:27;3.05;;;0.63;;
52434;SDS011;38354;52.892;6.148;2022-07-06T10:27:54;2.17;;;0.50;;
52434;SDS011;38354;52.892;6.148;2022-07-06T10:30:21;2.83;;;0.50;;
52434;SDS011;38354;52.892;6.148;2022-07-06T10:32:48;8.07;;;0.80;;
52434;SDS011;38354;52.892;6.148;2022-07-06T10:35:18;2.33;;;0.60;;
52434;SDS011;38354;52.892;6.148;2022-07-06T10:37:44;3.83;;;0.70;;
52434;SDS011;38354;52.892;6.148;2022-07-06T10:40:13;2.17;;;0.60;;
52434;SDS011;38354;52.892;6.148;2022-07-06T10:42:58;5.45;;;0.60;;
52434;SDS011;38354;52.892;6.148;2022-07-06T10:50:38;2.95;;;0.60;;
52434;SDS011;38354;52.892;6.148;2022-07-06T10:53:12;3.17;;;0.70;;
52434;SDS011;38354;52.892;6.148;2022-07-06T10:55:41;2.00;;;0.73;;
52434;SDS011;38354;52.892;6.148;2022-07-06T10:58:11;5.60;;;1.08;;
52434;SDS011;38354;52.892;6.148;2022-07-06T11:00:55;2.72;;;0.80;;
52434;SDS011;38354;52.892;6.148;2022-07-06T11:03:31;1.42;;;0.40;;
52434;SDS011;38354;52.892;6.148;2022-07-06T11:05:58;2.35;;;0.50;;
52434;SDS011;38354;52.892;6.148;2022-07-06T11:13:49;5.32;;;0.85;;
52434;SDS011;38354;52.892;6.148;2022-07-06T11:16:25;4.10;;;0.60;;
52434;SDS011;38354;52.892;6.148;2022-07-06T11:18:59;3.50;;;0.80;;
52434;SDS011;38354;52.892;6.148;2022-07-06T11:24:30;3.45;;;0.60;;
52434;SDS011;38354;52.892;6.148;2022-07-06T11:26:58;2.38;;;0.65;;
52434;SDS011;38354;52.892;6.148;2022-07-06T11:29:25;3.35;;;0.50;;
52434;SDS011;38354;52.892;6.148;2022-07-06T11:31:53;4.93;;;0.50;;
52434;SDS011;38354;52.892;6.148;2022-07-06T11:34:24;2.67;;;0.75;;
52434;SDS011;38354;52.892;6.148;2022-07-06T11:36:55;4.95;;;1.23;;
52434;SDS011;38354;52.892;6.148;2022-07-06T11:39:21;2.15;;;0.55;;
52434;SDS011;38354;52.892;6.148;2022-07-06T11:41:47;2.38;;;0.50;;
52434;SDS011;38354;52.892;6.148;2022-07-06T11:44:13;2.08;;;0.57;;
52434;SDS011;38354;52.892;6.148;2022-07-06T11:46:39;3.67;;;0.70;;
52434;SDS011;38354;52.892;6.148;2022-07-06T11:49:05;2.88;;;0.98;;
52434;SDS011;38354;52.892;6.148;2022-07-06T11:51:33;2.20;;;0.68;;
52434;SDS011;38354;52.892;6.148;2022-07-06T11:54:22;2.53;;;0.60;;
52434;SDS011;38354;52.892;6.148;2022-07-06T11:56:49;3.45;;;0.73;;
52434;SDS011;38354;52.892;6.148;2022-07-06T11:59:25;4.18;;;0.50;;
52434;SDS011;38354;52.892;6.148;2022-07-06T12:02:04;2.70;;;0.90;;
52434;SDS011;38354;52.892;6.148;2022-07-06T12:04:30;3.88;;;0.93;;
52434;SDS011;38354;52.892;6.148;2022-07-06T12:07:00;1.92;;;0.73;;
52434;SDS011;38354;52.892;6.148;2022-07-06T12:09:31;2.55;;;0.70;;
52434;SDS011;38354;52.892;6.148;2022-07-06T12:11:57;4.72;;;0.60;;
52434;SDS011;38354;52.892;6.148;2022-07-06T12:14:23;4.28;;;0.70;;
52434;SDS011;38354;52.892;6.148;2022-07-06T12:16:49;3.17;;;0.90;;
52434;SDS011;38354;52.892;6.148;2022-07-06T12:19:16;2.03;;;0.80;;
52434;SDS011;38354;52.892;6.148;2022-07-06T12:21:46;1.58;;;0.50;;
52434;SDS011;38354;52.892;6.148;2022-07-06T12:24:26;5.95;;;0.70;;
52434;SDS011;38354;52.892;6.148;2022-07-06T12:26:55;4.22;;;1.00;;
52434;SDS011;38354;52.892;6.148;2022-07-06T12:29:21;4.18;;;0.60;;
52434;SDS011;38354;52.892;6.148;2022-07-06T12:31:48;3.00;;;0.80;;
52434;SDS011;38354;52.892;6.148;2022-07-06T12:34:25;2.42;;;0.60;;
52434;SDS011;38354;52.892;6.148;2022-07-06T12:36:56;3.03;;;0.70;;
52434;SDS011;38354;52.892;6.148;2022-07-06T12:39:27;3.35;;;0.65;;
52434;SDS011;38354;52.892;6.148;2022-07-06T12:41:54;2.22;;;0.50;;
52434;SDS011;38354;52.892;6.148;2022-07-06T12:44:24;2.95;;;0.70;;
52434;SDS011;38354;52.892;6.148;2022-07-06T12:46:51;2.65;;;0.70;;
52434;SDS011;38354;52.892;6.148;2022-07-06T12:49:34;5.65;;;0.70;;
52434;SDS011;38354;52.892;6.148;2022-07-06T12:52:03;4.90;;;1.05;;
52434;SDS011;38354;52.892;6.148;2022-07-06T12:54:47;2.53;;;1.20;;
52434;SDS011;38354;52.892;6.148;2022-07-06T12:57:21;2.35;;;0.60;;
52434;SDS011;38354;52.892;6.148;2022-07-06T13:02:25;2.50;;;0.70;;
52434;SDS011;38354;52.892;6.148;2022-07-06T13:05:02;6.68;;;1.13;;
52434;SDS011;38354;52.892;6.148;2022-07-06T13:07:30;3.80;;;0.88;;
52434;SDS011;38354;52.892;6.148;2022-07-06T13:09:57;4.15;;;0.63;;
52434;SDS011;38354;52.892;6.148;2022-07-06T13:12:23;1.88;;;0.60;;
52434;SDS011;38354;52.892;6.148;2022-07-06T13:14:50;2.72;;;0.85;;
52434;SDS011;38354;52.892;6.148;2022-07-06T13:17:17;4.22;;;0.80;;
52434;SDS011;38354;52.892;6.148;2022-07-06T13:19:43;3.28;;;0.90;;
52434;SDS011;38354;52.892;6.148;2022-07-06T13:22:09;3.15;;;1.20;;
52434;SDS011;38354;52.892;6.148;2022-07-06T13:24:35;3.35;;;0.60;;
52434;SDS011;38354;52.892;6.148;2022-07-06T13:27:00;4.38;;;0.82;;
52434;SDS011;38354;52.892;6.148;2022-07-06T13:29:26;1.90;;;0.68;;
52434;SDS011;38354;52.892;6.148;2022-07-06T13:31:52;3.10;;;0.60;;
52434;SDS011;38354;52.892;6.148;2022-07-06T13:34:18;3.17;;;0.63;;
52434;SDS011;38354;52.892;6.148;2022-07-06T13:36:44;2.35;;;0.80;;
52434;SDS011;38354;52.892;6.148;2022-07-06T13:39:10;2.95;;;0.70;;
52434;SDS011;38354;52.892;6.148;2022-07-06T13:41:36;2.00;;;0.50;;
52434;SDS011;38354;52.892;6.148;2022-07-06T13:44:02;2.60;;;0.90;;
52434;SDS011;38354;52.892;6.148;2022-07-06T13:46:28;3.10;;;0.60;;
52434;SDS011;38354;52.892;6.148;2022-07-06T13:48:55;3.58;;;1.20;;
52434;SDS011;38354;52.892;6.148;2022-07-06T13:51:24;2.17;;;0.57;;
52434;SDS011;38354;52.892;6.148;2022-07-06T13:53:52;3.28;;;0.80;;
52434;SDS011;38354;52.892;6.148;2022-07-06T13:56:18;2.80;;;0.95;;
52434;SDS011;38354;52.892;6.148;2022-07-06T13:58:45;1.92;;;0.70;;
52434;SDS011;38354;52.892;6.148;2022-07-06T14:01:11;1.48;;;0.55;;
52434;SDS011;38354;52.892;6.148;2022-07-06T14:03:37;6.05;;;0.80;;
52434;SDS011;38354;52.892;6.148;2022-07-06T14:06:04;4.18;;;1.10;;
52434;SDS011;38354;52.892;6.148;2022-07-06T14:08:32;3.80;;;0.77;;
52434;SDS011;38354;52.892;6.148;2022-07-06T14:10:59;2.80;;;0.85;;
52434;SDS011;38354;52.892;6.148;2022-07-06T14:13:26;3.15;;;0.80;;
52434;SDS011;38354;52.892;6.148;2022-07-06T14:15:52;3.83;;;0.90;;
52434;SDS011;38354;52.892;6.148;2022-07-06T14:18:18;3.60;;;0.85;;
52434;SDS011;38354;52.892;6.148;2022-07-06T14:20:44;3.05;;;0.90;;
52434;SDS011;38354;52.892;6.148;2022-07-06T14:23:11;4.40;;;1.23;;
52434;SDS011;38354;52.892;6.148;2022-07-06T14:25:38;3.55;;;1.00;;
52434;SDS011;38354;52.892;6.148;2022-07-06T14:28:05;5.60;;;1.20;;
52434;SDS011;38354;52.892;6.148;2022-07-06T14:30:31;2.63;;;1.00;;
52434;SDS011;38354;52.892;6.148;2022-07-06T14:32:59;3.25;;;1.10;;
52434;SDS011;38354;52.892;6.148;2022-07-06T14:35:24;3.45;;;1.00;;
52434;SDS011;38354;52.892;6.148;2022-07-06T14:37:50;4.63;;;1.20;;
52434;SDS011;38354;52.892;6.148;2022-07-06T14:40:16;4.25;;;1.20;;
52434;SDS011;38354;52.892;6.148;2022-07-06T14:42:42;7.05;;;1.10;;
52434;SDS011;38354;52.892;6.148;2022-07-06T14:45:08;6.25;;;1.30;;
52434;SDS011;38354;52.892;6.148;2022-07-06T14:47:34;4.07;;;1.48;;
52434;SDS011;38354;52.892;6.148;2022-07-06T14:50:01;2.47;;;0.90;;
52434;SDS011;38354;52.892;6.148;2022-07-06T14:52:27;3.65;;;1.25;;
52434;SDS011;38354;52.892;6.148;2022-07-06T14:54:53;2.00;;;0.90;;
52434;SDS011;38354;52.892;6.148;2022-07-06T14:57:20;3.63;;;1.20;;
52434;SDS011;38354;52.892;6.148;2022-07-06T14:59:46;5.13;;;1.23;;
52434;SDS011;38354;52.892;6.148;2022-07-06T15:02:12;1.83;;;0.80;;
52434;SDS011;38354;52.892;6.148;2022-07-06T15:04:38;6.32;;;1.10;;
52434;SDS011;38354;52.892;6.148;2022-07-06T15:07:03;5.25;;;1.42;;
52434;SDS011;38354;52.892;6.148;2022-07-06T15:09:29;3.95;;;1.33;;
52434;SDS011;38354;52.892;6.148;2022-07-06T15:11:55;4.28;;;1.42;;
52434;SDS011;38354;52.892;6.148;2022-07-06T15:14:21;18.17;;;2.65;;
52434;SDS011;38354;52.892;6.148;2022-07-06T15:16:47;4.68;;;1.95;;
52434;SDS011;38354;52.892;6.148;2022-07-06T15:19:14;7.85;;;2.13;;
52434;SDS011;38354;52.892;6.148;2022-07-06T15:21:39;5.97;;;2.40;;
52434;SDS011;38354;52.892;6.148;2022-07-06T15:24:06;7.70;;;2.55;;
52434;SDS011;38354;52.892;6.148;2022-07-06T15:26:31;6.95;;;2.35;;
52434;SDS011;38354;52.892;6.148;2022-07-06T15:28:57;4.10;;;1.85;;
52434;SDS011;38354;52.892;6.148;2022-07-06T15:31:23;6.38;;;1.83;;
52434;SDS011;38354;52.892;6.148;2022-07-06T15:33:48;4.90;;;2.17;;
52434;SDS011;38354;52.892;6.148;2022-07-06T15:36:14;4.85;;;1.80;;
52434;SDS011;38354;52.892;6.148;2022-07-06T15:38:40;4.25;;;2.05;;
52434;SDS011;38354;52.892;6.148;2022-07-06T15:41:06;5.82;;;1.35;;
52434;SDS011;38354;52.892;6.148;2022-07-06T15:43:32;4.22;;;1.90;;
52434;SDS011;38354;52.892;6.148;2022-07-06T15:45:59;4.82;;;1.90;;
52434;SDS011;38354;52.892;6.148;2022-07-06T15:48:26;5.30;;;2.17;;
52434;SDS011;38354;52.892;6.148;2022-07-06T15:50:53;4.28;;;1.90;;
52434;SDS011;38354;52.892;6.148;2022-07-06T15:53:19;6.07;;;2.72;;
52434;SDS011;38354;52.892;6.148;2022-07-06T15:55:45;5.18;;;2.00;;
52434;SDS011;38354;52.892;6.148;2022-07-06T15:58:11;5.53;;;2.35;;
52434;SDS011;38354;52.892;6.148;2022-07-06T16:00:37;5.40;;;2.00;;
52434;SDS011;38354;52.892;6.148;2022-07-06T16:03:03;7.43;;;2.30;;
52434;SDS011;38354;52.892;6.148;2022-07-06T16:05:29;5.25;;;1.90;;
52434;SDS011;38354;52.892;6.148;2022-07-06T16:07:55;5.63;;;2.42;;
52434;SDS011;38354;52.892;6.148;2022-07-06T16:10:21;7.88;;;2.70;;
52434;SDS011;38354;52.892;6.148;2022-07-06T16:12:47;11.65;;;4.75;;
52434;SDS011;38354;52.892;6.148;2022-07-06T16:15:12;12.15;;;5.38;;
52434;SDS011;38354;52.892;6.148;2022-07-06T16:17:38;12.48;;;4.18;;
52434;SDS011;38354;52.892;6.148;2022-07-06T16:20:04;14.75;;;7.07;;
52434;SDS011;38354;52.892;6.148;2022-07-06T16:22:30;10.90;;;4.82;;
52434;SDS011;38354;52.892;6.148;2022-07-06T16:24:57;11.90;;;5.70;;
52434;SDS011;38354;52.892;6.148;2022-07-06T16:27:23;9.45;;;3.90;;
52434;SDS011;38354;52.892;6.148;2022-07-06T16:29:48;10.48;;;4.65;;
52434;SDS011;38354;52.892;6.148;2022-07-06T16:32:14;15.30;;;4.57;;
52434;SDS011;38354;52.892;6.148;2022-07-06T16:34:40;7.90;;;4.78;;
52434;SDS011;38354;52.892;6.148;2022-07-06T16:37:06;9.98;;;5.35;;
52434;SDS011;38354;52.892;6.148;2022-07-06T16:39:32;9.98;;;5.60;;
52434;SDS011;38354;52.892;6.148;2022-07-06T16:41:59;12.38;;;5.75;;
52434;SDS011;38354;52.892;6.148;2022-07-06T16:44:25;12.85;;;6.38;;
52434;SDS011;38354;52.892;6.148;2022-07-06T16:46:51;15.23;;;6.60;;
52434;SDS011;38354;52.892;6.148;2022-07-06T16:49:17;13.43;;;7.60;;
52434;SDS011;38354;52.892;6.148;2022-07-06T16:51:42;13.02;;;8.02;;
52434;SDS011;38354;52.892;6.148;2022-07-06T16:54:08;12.63;;;8.30;;
52434;SDS011;38354;52.892;6.148;2022-07-06T16:56:34;15.52;;;7.53;;
52434;SDS011;38354;52.892;6.148;2022-07-06T16:59:00;14.35;;;7.70;;
52434;SDS011;38354;52.892;6.148;2022-07-06T17:01:26;14.40;;;7.78;;
52434;SDS011;38354;52.892;6.148;2022-07-06T17:03:52;13.45;;;6.65;;
52434;SDS011;38354;52.892;6.148;2022-07-06T17:06:21;13.10;;;6.47;;
52434;SDS011;38354;52.892;6.148;2022-07-06T17:08:47;11.15;;;5.50;;
52434;SDS011;38354;52.892;6.148;2022-07-06T17:11:12;10.57;;;5.22;;
52434;SDS011;38354;52.892;6.148;2022-07-06T17:13:38;12.18;;;4.97;;
52434;SDS011;38354;52.892;6.148;2022-07-06T17:16:04;10.75;;;5.60;;
52434;SDS011;38354;52.892;6.148;2022-07-06T17:18:30;13.68;;;5.38;;
52434;SDS011;38354;52.892;6.148;2022-07-06T17:20:56;11.88;;;5.53;;
52434;SDS011;38354;52.892;6.148;2022-07-06T17:23:22;15.10;;;6.55;;
52434;SDS011;38354;52.892;6.148;2022-07-06T17:25:48;10.80;;;5.65;;
52434;SDS011;38354;52.892;6.148;2022-07-06T17:28:14;13.15;;;6.32;;
52434;SDS011;38354;52.892;6.148;2022-07-06T17:30:41;12.25;;;7.07;;
52434;SDS011;38354;52.892;6.148;2022-07-06T17:33:08;11.18;;;6.72;;
52434;SDS011;38354;52.892;6.148;2022-07-06T17:35:34;13.73;;;7.22;;
52434;SDS011;38354;52.892;6.148;2022-07-06T17:38:00;12.82;;;7.85;;
52434;SDS011;38354;52.892;6.148;2022-07-06T17:40:28;14.60;;;7.90;;
52434;SDS011;38354;52.892;6.148;2022-07-06T17:42:54;14.43;;;9.10;;
52434;SDS011;38354;52.892;6.148;2022-07-06T17:45:19;15.40;;;8.48;;
52434;SDS011;38354;52.892;6.148;2022-07-06T17:47:46;18.70;;;9.63;;
52434;SDS011;38354;52.892;6.148;2022-07-06T17:50:11;15.98;;;8.80;;
52434;SDS011;38354;52.892;6.148;2022-07-06T17:52:37;19.85;;;10.32;;
52434;SDS011;38354;52.892;6.148;2022-07-06T17:55:03;16.42;;;9.85;;
52434;SDS011;38354;52.892;6.148;2022-07-06T17:57:29;16.27;;;9.23;;
52434;SDS011;38354;52.892;6.148;2022-07-06T17:59:55;20.88;;;10.27;;
52434;SDS011;38354;52.892;6.148;2022-07-06T18:02:20;16.67;;;9.43;;